CheckWX is a tool to help pilots better visualize weather data.  It is not intended as a substitute for an official pre-flight weather briefing.

03:46:12 UTC

FKYS TAF
Yaoundé Nsimalen International Airport
Yaoundé, Cameroon
TAF FKYS 172300Z 1800/1824 VRB03KT 8000 BKN006 FEW020CB PROB40 1803/1807 3000 BR BECMG 1808/1810 BKN016 TEMPO 1815/1821 TS BKN013 FEW020CB BECMG 1821/1823 BKN006

Sep-18@
00:00 UTC

Sep-18 @ 00:00 UTC

Sep-18@
08:00 UTC

Sep-18 @ 08:00 UTC

TAF FKYS 172300Z 1800/1824 VRB03KT 8000 BKN006 FEW020CB
Wind
  • Variable at 3 KTS
Cloud Levels
  • Broken at 600' AGL
  • Few at 2,000' AGL

Sep-18@
03:00 UTC

Sep-18 @ 03:00 UTC

Sep-18@
07:00 UTC

Sep-18 @ 07:00 UTC

PROB40 1803/1807 3000 BR

Probable - 40% Likelihood

Probable - 40% Likelihood during this time.

Conditions
Mist

Sep-18@
08:00 UTC

Sep-18 @ 08:00 UTC

Sep-18@
21:00 UTC

Sep-18 @ 21:00 UTC

BECMG 1808/1810 BKN016

Becoming

Becoming Conditions expected by Wed, Sep 18, 2019 @ 10:00 UTC

Wind
  • Variable at 3 KTS
Cloud Levels
  • Broken at 1,600' AGL

Sep-18@
15:00 UTC

Sep-18 @ 15:00 UTC

Sep-18@
21:00 UTC

Sep-18 @ 21:00 UTC

TEMPO 1815/1821 TS BKN013 FEW020CB

Temporary

Temporary Changes expected for less than half the time period

Conditions
Thunderstorm
Cloud Levels
  • Broken at 1,300' AGL
  • Few at 2,000' AGL

Sep-18@
21:00 UTC

Sep-18 @ 21:00 UTC

Sep-19@
00:00 UTC

Sep-19 @ 00:00 UTC

BECMG 1821/1823 BKN006

Becoming

Becoming Conditions expected by Wed, Sep 18, 2019 @ 23:00 UTC

Wind
  • Variable at 3 KTS
Cloud Levels
  • Broken at 600' AGL